createdAt,value
2022-11-09T00:00:36.359Z,100050.37
2022-11-09T00:03:03.844Z,100044.94
2022-11-09T00:05:31.243Z,100048.03
2022-11-09T00:07:58.444Z,100048.69
2022-11-09T00:10:25.923Z,100054.56
2022-11-09T00:12:53.103Z,100059.38
2022-11-09T00:15:20.315Z,100040.69
2022-11-09T00:17:47.789Z,100047.53
2022-11-09T00:20:15.027Z,100038.03
2022-11-09T00:22:42.235Z,100044.75
2022-11-09T00:25:09.825Z,100041.22
2022-11-09T00:27:37.028Z,100046.03
2022-11-09T00:30:04.476Z,100044.16
2022-11-09T00:32:31.968Z,100047.91
2022-11-09T00:34:59.176Z,100049.16
2022-11-09T00:37:29.667Z,100038.62
2022-11-09T00:39:57.154Z,100044.94
2022-11-09T00:42:24.430Z,100049.16
2022-11-09T00:44:51.671Z,100045.34
2022-11-09T00:47:19.247Z,100040.41
2022-11-09T00:49:47.184Z,100041.28
2022-11-09T00:52:14.569Z,100039.03
2022-11-09T00:54:42.120Z,100032.72
2022-11-09T00:57:09.324Z,100035.72
2022-11-09T00:59:36.643Z,100038.53
2022-11-09T01:02:04.171Z,100038.28
2022-11-09T01:04:31.478Z,100032.31
2022-11-09T01:07:00.127Z,100034.38
2022-11-09T01:09:27.672Z,100029.28
2022-11-09T01:11:54.943Z,100029.78
2022-11-09T01:14:22.478Z,100032.12
2022-11-09T01:16:50.031Z,100026.78
2022-11-09T01:19:17.352Z,100020.91
2022-11-09T01:21:45.526Z,100028.53
2022-11-09T01:24:13.043Z,100025.00
2022-11-09T01:26:40.258Z,100023.53
2022-11-09T01:29:07.475Z,100021.00
2022-11-09T01:31:34.996Z,100020.16
2022-11-09T01:34:02.428Z,100018.31
2022-11-09T01:36:30.061Z,100008.84
2022-11-09T01:39:00.390Z,100014.72
2022-11-09T01:41:28.352Z,100010.19
2022-11-09T01:44:06.835Z,100002.81
2022-11-09T01:46:42.733Z,100002.84
2022-11-09T01:49:14.978Z,100000.53
2022-11-09T01:51:44.053Z,99994.06
2022-11-09T01:54:13.373Z,99993.69
2022-11-09T01:56:40.626Z,100000.03
2022-11-09T01:59:11.310Z,99997.41
2022-11-09T02:01:38.620Z,100000.59
2022-11-09T02:04:21.028Z,99997.69
2022-11-09T02:06:48.428Z,99994.41
2022-11-09T02:09:18.907Z,99993.25
2022-11-09T02:11:46.128Z,99986.63
2022-11-09T02:14:13.515Z,99985.97
2022-11-09T02:16:41.082Z,99991.06
2022-11-09T02:19:08.341Z,99989.91
2022-11-09T02:21:35.527Z,99984.00
2022-11-09T02:24:03.034Z,99984.16
2022-11-09T02:26:33.080Z,99991.66
2022-11-09T02:29:01.026Z,99986.41
2022-11-09T02:31:30.825Z,99995.13
2022-11-09T02:34:03.343Z,99979.84
2022-11-09T02:36:32.351Z,99986.59
2022-11-09T02:39:00.619Z,99983.72
2022-11-09T02:41:28.103Z,99985.16
2022-11-09T02:43:57.118Z,99981.88
2022-11-09T02:46:25.052Z,99977.59
2022-11-09T02:48:52.708Z,99983.84
2022-11-09T02:51:20.229Z,99982.69
2022-11-09T02:53:48.655Z,99965.88
2022-11-09T02:56:15.874Z,99964.56
2022-11-09T02:58:43.374Z,99975.25
2022-11-09T03:01:10.938Z,99975.25
2022-11-09T03:03:38.195Z,99974.53
2022-11-09T03:06:05.675Z,99981.56
2022-11-09T03:08:33.178Z,99986.06
2022-11-09T03:11:00.834Z,99984.75
2022-11-09T03:13:28.807Z,99995.94
2022-11-09T03:15:56.356Z,99996.13
2022-11-09T03:18:23.551Z,99982.53
2022-11-09T03:20:51.077Z,99987.16
2022-11-09T03:23:18.624Z,99988.25
2022-11-09T03:25:46.585Z,99985.13
2022-11-09T03:28:14.776Z,99994.72
2022-11-09T03:30:42.146Z,99993.28
2022-11-09T03:33:10.358Z,99991.06
2022-11-09T03:35:38.067Z,99988.88
2022-11-09T03:38:05.503Z,99988.41
2022-11-09T03:40:32.710Z,99985.00
2022-11-09T03:43:00.193Z,99988.03
2022-11-09T03:45:30.093Z,99984.38
2022-11-09T03:48:00.140Z,99983.75
2022-11-09T03:50:28.424Z,99975.97
2022-11-09T03:52:55.869Z,99971.41
2022-11-09T03:55:23.051Z,99978.66
2022-11-09T03:57:50.570Z,99981.34
2022-11-09T04:00:18.835Z,99978.91
2022-11-09T04:02:46.500Z,99985.53
2022-11-09T04:05:14.032Z,99977.13
2022-11-09T04:07:41.225Z,99990.47
2022-11-09T04:10:08.698Z,99980.72
2022-11-09T04:12:35.924Z,99979.88
2022-11-09T04:15:03.165Z,99976.78
2022-11-09T04:17:30.803Z,99983.94
2022-11-09T04:19:58.014Z,99977.84
2022-11-09T04:22:25.222Z,99977.56
2022-11-09T04:24:52.679Z,99973.25
2022-11-09T04:27:19.871Z,99980.91
2022-11-09T04:29:47.056Z,99972.97
2022-11-09T04:32:14.569Z,99981.22
2022-11-09T04:34:41.747Z,99974.00
2022-11-09T04:37:09.330Z,99968.44
2022-11-09T04:39:36.816Z,99966.69
2022-11-09T04:42:04.028Z,99971.16
2022-11-09T04:44:31.290Z,99967.66
2022-11-09T04:46:58.761Z,99970.56
2022-11-09T04:49:25.987Z,99972.69
2022-11-09T04:51:53.187Z,99973.38
2022-11-09T04:54:20.707Z,99970.94
2022-11-09T04:56:47.922Z,99970.44
2022-11-09T04:59:15.166Z,99970.78
2022-11-09T05:01:42.715Z,99965.19
2022-11-09T05:04:09.933Z,99968.56
2022-11-09T05:06:37.205Z,99965.34
2022-11-09T05:09:05.962Z,99959.19
2022-11-09T05:11:33.752Z,99968.28
2022-11-09T05:14:01.285Z,99969.38
2022-11-09T05:16:29.058Z,99964.44
2022-11-09T05:18:56.234Z,99954.09
2022-11-09T05:21:23.415Z,99953.19
2022-11-09T05:23:59.793Z,99955.97
2022-11-09T05:26:33.638Z,99956.13
2022-11-09T05:29:02.649Z,99968.50
2022-11-09T05:31:30.343Z,99974.19
2022-11-09T05:33:57.722Z,99972.88
2022-11-09T05:36:25.483Z,99976.00
2022-11-09T05:38:52.704Z,99975.47
2022-11-09T05:41:20.221Z,99971.72
2022-11-09T05:43:47.698Z,99978.19
2022-11-09T05:46:15.135Z,99977.06
2022-11-09T05:48:42.824Z,99976.00
2022-11-09T05:51:11.378Z,99970.31
2022-11-09T05:53:42.375Z,99976.81
2022-11-09T05:56:14.374Z,99975.03
2022-11-09T05:58:42.129Z,99981.53
2022-11-09T06:01:10.520Z,99986.91
2022-11-09T06:03:38.151Z,99985.44
2022-11-09T06:06:08.641Z,99986.47
2022-11-09T06:08:36.401Z,99982.81
2022-11-09T06:11:08.042Z,99986.41
2022-11-09T06:13:35.553Z,99982.12
2022-11-09T06:16:03.795Z,99982.31
2022-11-09T06:18:31.547Z,99985.81
2022-11-09T06:20:59.886Z,99990.56
2022-11-09T06:23:27.213Z,99988.44
2022-11-09T06:25:58.540Z,99989.59
2022-11-09T06:28:25.751Z,99994.28
2022-11-09T06:30:53.144Z,99994.94
2022-11-09T06:33:20.886Z,99998.56
2022-11-09T06:35:52.146Z,99995.81
2022-11-09T06:38:23.874Z,99992.38
2022-11-09T06:40:51.393Z,99994.81
2022-11-09T06:43:18.943Z,99990.62
2022-11-09T06:45:46.631Z,99995.28
2022-11-09T06:48:14.016Z,99993.81
2022-11-09T06:50:41.279Z,100009.84
2022-11-09T06:53:09.951Z,100000.72
2022-11-09T06:55:37.291Z,99999.13
2022-11-09T06:58:08.042Z,100003.50
2022-11-09T07:00:35.738Z,100008.47
2022-11-09T07:03:03.040Z,100002.16
2022-11-09T07:05:30.351Z,100005.84
2022-11-09T07:07:57.905Z,100000.69
2022-11-09T07:10:25.216Z,100002.13
2022-11-09T07:12:52.396Z,100005.41
2022-11-09T07:15:19.855Z,100004.25
2022-11-09T07:17:47.091Z,100001.53
2022-11-09T07:20:14.911Z,100001.25
2022-11-09T07:22:42.841Z,100003.03
2022-11-09T07:25:11.008Z,100013.13
2022-11-09T07:27:38.222Z,100009.47
2022-11-09T07:30:05.920Z,100012.53
2022-11-09T07:33:08.624Z,100008.22
2022-11-09T07:35:21.711Z,100009.22
2022-11-09T07:37:48.885Z,100010.19
2022-11-09T07:40:16.088Z,100006.72
2022-11-09T07:42:43.555Z,100003.72
2022-11-09T07:45:10.900Z,100011.56
2022-11-09T07:47:38.482Z,100006.41
2022-11-09T07:50:06.187Z,100014.94
2022-11-09T07:52:33.362Z,100009.34
2022-11-09T07:55:00.616Z,100011.94
2022-11-09T07:57:28.079Z,100013.31
2022-11-09T07:59:55.269Z,100010.28
2022-11-09T08:02:22.581Z,100009.69
2022-11-09T08:04:50.049Z,100011.56
2022-11-09T08:07:17.271Z,100003.75
2022-11-09T08:09:44.491Z,100005.28
2022-11-09T08:12:11.981Z,100003.16
2022-11-09T08:14:39.214Z,100004.97
2022-11-09T08:17:06.436Z,99998.97
2022-11-09T08:19:34.248Z,100000.00
2022-11-09T08:22:01.463Z,99992.19
2022-11-09T08:24:28.649Z,99994.84
2022-11-09T08:26:56.108Z,99997.62
2022-11-09T08:29:23.265Z,99993.22
2022-11-09T08:31:51.127Z,99991.25
2022-11-09T08:34:18.771Z,99994.66
2022-11-09T08:36:45.934Z,99992.75
2022-11-09T08:39:13.135Z,99995.03
2022-11-09T08:41:40.588Z,99999.63
2022-11-09T08:44:07.818Z,99992.41
2022-11-09T08:46:40.828Z,99985.69
2022-11-09T08:49:08.855Z,99991.84
2022-11-09T08:51:36.053Z,100004.72
2022-11-09T08:54:03.299Z,99996.25
2022-11-09T08:56:30.909Z,99996.41
2022-11-09T08:58:58.079Z,99989.81
2022-11-09T09:01:25.495Z,100000.72
2022-11-09T09:03:52.988Z,99996.97
2022-11-09T09:06:20.195Z,99992.34
2022-11-09T09:08:47.382Z,99999.66
2022-11-09T09:11:16.521Z,99996.75
2022-11-09T09:13:43.948Z,99986.84
2022-11-09T09:16:12.166Z,99988.66
2022-11-09T09:18:39.709Z,99994.09
2022-11-09T09:21:07.739Z,99991.31
2022-11-09T09:23:34.903Z,99995.34
2022-11-09T09:26:02.352Z,99987.09
2022-11-09T09:28:29.608Z,99990.00
2022-11-09T09:31:00.101Z,99992.59
2022-11-09T09:33:27.628Z,99993.25
2022-11-09T09:35:55.502Z,99994.06
2022-11-09T09:38:22.995Z,99996.34
2022-11-09T09:41:00.350Z,99995.19
2022-11-09T09:43:47.832Z,99995.81
2022-11-09T09:46:33.939Z,99987.03
2022-11-09T09:49:06.256Z,99984.09
2022-11-09T09:51:45.508Z,99983.16
2022-11-09T09:54:15.521Z,99975.44
2022-11-09T09:56:43.852Z,99976.28
2022-11-09T09:59:20.356Z,99975.72
2022-11-09T10:01:48.129Z,99972.09
2022-11-09T10:04:22.497Z,99973.75
2022-11-09T10:06:49.744Z,99957.66
2022-11-09T10:09:23.182Z,99965.69
2022-11-09T10:11:55.328Z,99951.34
2022-11-09T10:14:25.914Z,99954.25
2022-11-09T10:17:11.761Z,99955.78
2022-11-09T10:19:51.581Z,99955.25
2022-11-09T10:22:22.397Z,99957.53
2022-11-09T10:25:18.568Z,99959.03
2022-11-09T10:27:48.048Z,99958.13
2022-11-09T10:30:19.429Z,99954.09
2022-11-09T10:32:55.050Z,99957.16
2022-11-09T10:35:24.905Z,99949.44
2022-11-09T10:37:52.637Z,99952.72
2022-11-09T10:40:22.360Z,99951.50
2022-11-09T10:43:12.106Z,99948.16
2022-11-09T10:46:04.880Z,99948.59
2022-11-09T10:48:50.578Z,99937.97
2022-11-09T10:51:40.447Z,99934.09
2022-11-09T10:54:28.112Z,99925.13
2022-11-09T10:57:17.365Z,99941.09
2022-11-09T11:00:03.348Z,99934.19
2022-11-09T11:02:50.392Z,99927.56
2022-11-09T11:05:36.216Z,99930.84
2022-11-09T11:08:23.167Z,99918.94
2022-11-09T11:11:33.207Z,99918.16
2022-11-09T11:14:23.411Z,99913.09
2022-11-09T11:17:28.414Z,99914.78
2022-11-09T11:20:26.370Z,99910.72
2022-11-09T11:23:12.887Z,99912.19
2022-11-09T11:26:01.409Z,99911.50
2022-11-09T11:28:51.857Z,99915.13
2022-11-09T11:31:37.470Z,99914.72
2022-11-09T11:34:53.531Z,99908.56
2022-11-09T11:37:40.251Z,99915.88
2022-11-09T11:40:28.346Z,99919.88
2022-11-09T11:43:40.209Z,99919.66
2022-11-09T11:46:31.840Z,99917.00
2022-11-09T11:49:50.045Z,99909.91
2022-11-09T11:52:47.878Z,99918.91
2022-11-09T11:55:46.384Z,99912.56
2022-11-09T11:58:35.738Z,99907.13
2022-11-09T12:01:21.511Z,99904.31
2022-11-09T12:04:30.954Z,99907.34
2022-11-09T12:07:24.650Z,99908.28
2022-11-09T12:10:17.065Z,99904.13
2022-11-09T12:13:22.491Z,99901.72
2022-11-09T12:16:14.014Z,99898.69
2022-11-09T12:18:59.739Z,99903.13
2022-11-09T12:21:55.115Z,99897.19
2022-11-09T12:24:55.965Z,99894.87
2022-11-09T12:27:59.874Z,99896.69
2022-11-09T12:31:04.003Z,99892.06
2022-11-09T12:34:02.967Z,99900.09
2022-11-09T12:36:56.112Z,99890.78
2022-11-09T12:39:41.693Z,99893.47
2022-11-09T12:42:35.041Z,99889.03
2022-11-09T12:45:34.167Z,99887.09
2022-11-09T12:48:22.951Z,99890.50
2022-11-09T12:51:08.733Z,99892.44
2022-11-09T12:53:54.331Z,99894.53
2022-11-09T12:56:59.173Z,99889.53
2022-11-09T12:59:50.212Z,99887.72
2022-11-09T13:02:37.299Z,99885.91
2022-11-09T13:05:37.611Z,99881.06
2022-11-09T13:08:29.218Z,99879.94
2022-11-09T13:11:17.806Z,99872.94
2022-11-09T13:14:21.932Z,99873.28
2022-11-09T13:17:25.788Z,99869.94
2022-11-09T13:20:56.366Z,99867.56
2022-11-09T13:26:49.004Z,99865.50
2022-11-09T13:29:40.737Z,99864.91
2022-11-09T13:32:29.711Z,99869.81
2022-11-09T13:35:34.416Z,99862.56
2022-11-09T13:38:23.358Z,99859.53
2022-11-09T13:41:28.124Z,99867.59
2022-11-09T13:44:17.907Z,99860.16
2022-11-09T13:47:03.321Z,99870.72
2022-11-09T13:49:49.821Z,99870.06
2022-11-09T13:52:48.682Z,99875.00
2022-11-09T13:55:38.694Z,99863.06
2022-11-09T13:58:24.290Z,99863.50
2022-11-09T14:01:29.894Z,99860.75
2022-11-09T14:04:26.864Z,99864.37
2022-11-09T14:07:29.207Z,99861.66
2022-11-09T14:10:33.976Z,99859.22
2022-11-09T14:13:24.527Z,99859.50
2022-11-09T14:16:17.347Z,99863.84
2022-11-09T14:19:09.137Z,99860.62
2022-11-09T14:21:54.749Z,99862.16
2022-11-09T14:24:40.334Z,99861.03
2022-11-09T14:27:26.021Z,99863.41
2022-11-09T14:30:21.561Z,99855.28
2022-11-09T14:33:20.456Z,99858.53
2022-11-09T14:36:06.492Z,99865.56
2022-11-09T14:38:52.020Z,99855.25
2022-11-09T14:41:37.871Z,99857.63
2022-11-09T14:44:32.284Z,99860.34
2022-11-09T14:47:33.486Z,99864.28
2022-11-09T14:50:37.570Z,99860.22
2022-11-09T14:53:26.320Z,99868.84
2022-11-09T14:56:12.914Z,99870.34
2022-11-09T14:58:58.451Z,99867.41
2022-11-09T15:01:56.894Z,99865.97
2022-11-09T15:04:54.738Z,99857.22
2022-11-09T15:07:40.306Z,99865.44
2022-11-09T15:10:29.630Z,99862.88
2022-11-09T15:13:15.060Z,99867.16
2022-11-09T15:16:01.023Z,99867.22
2022-11-09T15:18:46.549Z,99869.22
2022-11-09T15:21:34.289Z,99866.59
2022-11-09T15:24:20.500Z,99867.12
2022-11-09T15:27:26.232Z,99861.75
2022-11-09T15:30:30.740Z,99864.56
2022-11-09T15:33:19.371Z,99858.69
2022-11-09T15:36:06.768Z,99858.47
2022-11-09T15:38:57.235Z,99863.59
2022-11-09T15:41:42.844Z,99868.38
2022-11-09T15:44:28.345Z,99864.69
2022-11-09T15:47:21.624Z,99860.06
2022-11-09T15:50:11.258Z,99869.63
2022-11-09T15:52:56.902Z,99861.06
2022-11-09T15:55:43.043Z,99866.44
2022-11-09T15:58:28.679Z,99866.19
2022-11-09T16:01:14.431Z,99867.84
2022-11-09T16:04:00.297Z,99870.06
2022-11-09T16:06:47.001Z,99867.28
2022-11-09T16:09:33.263Z,99866.28
2022-11-09T16:12:19.276Z,99873.19
2022-11-09T16:15:05.211Z,99868.00
2022-11-09T16:17:51.264Z,99880.72
2022-11-09T16:20:36.924Z,99877.50
2022-11-09T16:23:22.652Z,99874.91
2022-11-09T16:26:09.359Z,99874.66
2022-11-09T16:28:55.151Z,99878.56
2022-11-09T16:31:51.434Z,99868.44
2022-11-09T16:34:38.276Z,99878.47
2022-11-09T16:37:23.979Z,99874.50
2022-11-09T16:40:11.270Z,99883.34
2022-11-09T16:42:56.914Z,99877.63
2022-11-09T16:45:46.641Z,99878.47
2022-11-09T16:48:33.016Z,99878.53
2022-11-09T16:51:19.279Z,99879.81
2022-11-09T16:54:05.200Z,99876.53
2022-11-09T16:56:52.262Z,99877.75
2022-11-09T16:59:38.506Z,99871.50
2022-11-09T17:02:24.792Z,99878.97
2022-11-09T17:05:10.830Z,99882.38
2022-11-09T17:07:57.171Z,99879.59
2022-11-09T17:10:43.772Z,99891.59
2022-11-09T17:13:29.728Z,99887.31
2022-11-09T17:16:20.242Z,99883.84
2022-11-09T17:19:06.361Z,99884.66
2022-11-09T17:21:52.325Z,99893.06
2022-11-09T17:24:38.283Z,99884.88
2022-11-09T17:27:24.238Z,99880.47
2022-11-09T17:30:11.771Z,99879.94
2022-11-09T17:32:57.542Z,99890.19
2022-11-09T17:35:43.071Z,99884.78
2022-11-09T17:38:28.898Z,99887.41
2022-11-09T17:41:18.781Z,99890.28
2022-11-09T17:44:04.581Z,99888.31
2022-11-09T17:46:50.651Z,99883.09
2022-11-09T17:49:36.534Z,99883.44
2022-11-09T17:52:22.071Z,99880.47
2022-11-09T17:55:07.949Z,99887.91
2022-11-09T17:57:53.983Z,99885.44
2022-11-09T18:00:39.788Z,99881.28
2022-11-09T18:03:25.899Z,99879.81
2022-11-09T18:06:13.255Z,99873.06
2022-11-09T18:09:34.457Z,99874.81
2022-11-09T18:12:05.434Z,99874.25
2022-11-09T18:14:51.575Z,99876.78
2022-11-09T18:17:37.307Z,99869.81
2022-11-09T18:20:23.518Z,99865.75
2022-11-09T18:23:09.813Z,99868.72
2022-11-09T18:25:58.668Z,99869.91
2022-11-09T18:28:44.934Z,99874.50
2022-11-09T18:31:30.734Z,99872.16
2022-11-09T18:34:16.404Z,99878.59
2022-11-09T18:37:02.017Z,99870.44
2022-11-09T18:39:48.008Z,99872.91
2022-11-09T18:42:33.260Z,99875.69
2022-11-09T18:45:19.588Z,99876.84
2022-11-09T18:48:05.659Z,99877.66
2022-11-09T18:50:52.366Z,99870.53
2022-11-09T18:53:39.488Z,99867.84
2022-11-09T18:56:25.163Z,99874.81
2022-11-09T18:59:12.381Z,99871.41
2022-11-09T19:01:57.952Z,99871.13
2022-11-09T19:04:43.838Z,99874.94
2022-11-09T19:07:29.793Z,99870.25
2022-11-09T19:10:16.279Z,99875.44
2022-11-09T19:13:02.273Z,99869.34
2022-11-09T19:15:48.425Z,99875.25
2022-11-09T19:18:34.140Z,99868.06
2022-11-09T19:21:22.969Z,99874.59
2022-11-09T19:24:11.942Z,99876.38
2022-11-09T19:26:57.446Z,99878.69
2022-11-09T19:29:43.109Z,99877.94
2022-11-09T19:32:28.909Z,99880.34
2022-11-09T19:35:14.833Z,99872.84
2022-11-09T19:38:06.065Z,99863.75
2022-11-09T19:40:54.493Z,99869.53
2022-11-09T19:43:40.741Z,99867.94
2022-11-09T19:46:27.000Z,99878.37
2022-11-09T19:49:12.860Z,99875.75
2022-11-09T19:51:58.575Z,99876.19
2022-11-09T19:54:44.169Z,99882.09
2022-11-09T19:57:30.920Z,99873.63
2022-11-09T20:00:17.596Z,99875.06
2022-11-09T20:03:03.678Z,99873.78
2022-11-09T20:05:53.353Z,99878.91
2022-11-09T20:08:39.222Z,99885.69
2022-11-09T20:11:43.982Z,99878.75
2022-11-09T20:14:29.626Z,99875.62
2022-11-09T20:17:15.466Z,99874.78
2022-11-09T20:20:01.070Z,99875.62
2022-11-09T20:22:46.750Z,99873.78
2022-11-09T20:25:32.606Z,99870.38
2022-11-09T20:28:18.416Z,99861.97
2022-11-09T20:31:08.594Z,99867.00
2022-11-09T20:33:55.665Z,99868.81
2022-11-09T20:36:41.684Z,99868.53
2022-11-09T20:39:27.324Z,99865.81
2022-11-09T20:42:13.407Z,99866.09
2022-11-09T20:44:59.000Z,99863.84
2022-11-09T20:48:05.135Z,99867.69
2022-11-09T20:50:50.438Z,99867.41
2022-11-09T20:53:36.199Z,99865.25
2022-11-09T20:56:22.289Z,99869.25
2022-11-09T20:59:07.731Z,99873.22
2022-11-09T21:01:53.202Z,99875.47
2022-11-09T21:04:39.255Z,99873.47
2022-11-09T21:07:24.989Z,99877.69
2022-11-09T21:10:10.788Z,99867.12
2022-11-09T21:12:56.466Z,99871.50
2022-11-09T21:15:41.953Z,99874.78
2022-11-09T21:18:27.638Z,99872.22
2022-11-09T21:21:15.403Z,99875.19
2022-11-09T21:24:19.870Z,99866.25
2022-11-09T21:27:24.304Z,99870.81
2022-11-09T21:30:10.460Z,99868.97
2022-11-09T21:32:55.806Z,99872.66
2022-11-09T21:35:41.902Z,99860.12
2022-11-09T21:38:27.589Z,99862.16
2022-11-09T21:41:31.814Z,99869.13
2022-11-09T21:44:17.648Z,99865.81
2022-11-09T21:47:03.507Z,99871.37
2022-11-09T21:49:49.291Z,99873.91
2022-11-09T21:52:35.247Z,99868.84
2022-11-09T21:55:20.938Z,99874.03
2022-11-09T21:58:06.661Z,99873.63
2022-11-09T22:00:52.705Z,99868.91
2022-11-09T22:03:38.483Z,99865.41
2022-11-09T22:06:25.628Z,99860.22
2022-11-09T22:09:15.182Z,99858.63
2022-11-09T22:12:19.350Z,99861.41
2022-11-09T22:15:24.103Z,99852.34
2022-11-09T22:18:29.821Z,99849.09
2022-11-09T22:21:15.342Z,99857.63
2022-11-09T22:24:01.213Z,99864.13
2022-11-09T22:26:46.798Z,99856.19
2022-11-09T22:29:32.755Z,99857.03
2022-11-09T22:32:18.432Z,99865.41
2022-11-09T22:35:04.510Z,99867.94
2022-11-09T22:37:50.166Z,99859.16
2022-11-09T22:40:35.956Z,99854.47
2022-11-09T22:43:21.934Z,99858.28
2022-11-09T22:46:12.303Z,99851.50
2022-11-09T22:48:57.820Z,99852.50
2022-11-09T22:51:43.840Z,99845.12
2022-11-09T22:54:29.514Z,99847.81
2022-11-09T22:57:15.221Z,99851.78
2022-11-09T23:00:01.180Z,99855.03
2022-11-09T23:02:46.957Z,99854.34
2022-11-09T23:05:32.872Z,99855.03
2022-11-09T23:08:18.785Z,99862.97
2022-11-09T23:11:06.601Z,99851.91
2022-11-09T23:13:53.095Z,99855.75
2022-11-09T23:16:38.910Z,99852.34
2022-11-09T23:19:24.654Z,99862.13
2022-11-09T23:22:10.518Z,99855.06
2022-11-09T23:25:14.963Z,99860.00
2022-11-09T23:28:00.817Z,99853.59
2022-11-09T23:30:46.581Z,99853.31
2022-11-09T23:33:32.607Z,99851.94
2022-11-09T23:36:18.713Z,99852.78
2022-11-09T23:39:04.302Z,99850.09
2022-11-09T23:41:50.055Z,99841.13
2022-11-09T23:44:35.867Z,99845.25
2022-11-09T23:47:21.367Z,99847.09
2022-11-09T23:50:07.317Z,99843.94
2022-11-09T23:52:53.449Z,99848.22
2022-11-09T23:55:39.647Z,99850.78
2022-11-09T23:58:25.695Z,99851.47
